sensor_id;sensor_type;location;lat;lon;timestamp;P1;durP1;ratioP1;P2;durP2;ratioP2
28353;SDS011;15603;50.878;8.036;2023-04-25T00:00:18;7.97;;;3.60;;
28353;SDS011;15603;50.878;8.036;2023-04-25T00:02:46;9.10;;;3.05;;
28353;SDS011;15603;50.878;8.036;2023-04-25T00:05:13;12.38;;;3.65;;
28353;SDS011;15603;50.878;8.036;2023-04-25T00:07:42;14.25;;;3.25;;
28353;SDS011;15603;50.878;8.036;2023-04-25T00:10:09;8.80;;;3.97;;
28353;SDS011;15603;50.878;8.036;2023-04-25T00:12:37;13.52;;;3.88;;
28353;SDS011;15603;50.878;8.036;2023-04-25T00:15:05;16.27;;;4.22;;
28353;SDS011;15603;50.878;8.036;2023-04-25T00:17:33;12.80;;;3.60;;
28353;SDS011;15603;50.878;8.036;2023-04-25T00:20:01;9.35;;;3.30;;
28353;SDS011;15603;50.878;8.036;2023-04-25T00:22:32;13.52;;;3.42;;
28353;SDS011;15603;50.878;8.036;2023-04-25T00:25:01;10.57;;;3.60;;
28353;SDS011;15603;50.878;8.036;2023-04-25T00:27:28;10.95;;;3.10;;
28353;SDS011;15603;50.878;8.036;2023-04-25T00:29:55;7.50;;;3.13;;
28353;SDS011;15603;50.878;8.036;2023-04-25T00:32:22;9.43;;;3.30;;
28353;SDS011;15603;50.878;8.036;2023-04-25T00:34:49;7.32;;;3.50;;
28353;SDS011;15603;50.878;8.036;2023-04-25T00:37:16;7.30;;;3.28;;
28353;SDS011;15603;50.878;8.036;2023-04-25T00:39:43;8.82;;;3.72;;
28353;SDS011;15603;50.878;8.036;2023-04-25T00:42:10;7.75;;;3.10;;
28353;SDS011;15603;50.878;8.036;2023-04-25T00:44:38;10.23;;;3.30;;
28353;SDS011;15603;50.878;8.036;2023-04-25T00:47:06;18.73;;;4.47;;
28353;SDS011;15603;50.878;8.036;2023-04-25T00:49:34;17.83;;;4.88;;
28353;SDS011;15603;50.878;8.036;2023-04-25T00:52:01;7.35;;;3.75;;
28353;SDS011;15603;50.878;8.036;2023-04-25T00:54:28;9.50;;;3.42;;
28353;SDS011;15603;50.878;8.036;2023-04-25T00:56:57;11.65;;;3.38;;
28353;SDS011;15603;50.878;8.036;2023-04-25T00:59:24;7.82;;;3.10;;
28353;SDS011;15603;50.878;8.036;2023-04-25T01:01:52;15.70;;;3.38;;
28353;SDS011;15603;50.878;8.036;2023-04-25T01:04:19;12.52;;;3.40;;
28353;SDS011;15603;50.878;8.036;2023-04-25T01:06:47;12.77;;;3.72;;
28353;SDS011;15603;50.878;8.036;2023-04-25T01:09:14;12.63;;;4.10;;
28353;SDS011;15603;50.878;8.036;2023-04-25T01:11:41;14.25;;;3.78;;
28353;SDS011;15603;50.878;8.036;2023-04-25T01:14:08;15.80;;;3.50;;
28353;SDS011;15603;50.878;8.036;2023-04-25T01:16:35;18.95;;;4.03;;
28353;SDS011;15603;50.878;8.036;2023-04-25T01:19:12;11.38;;;3.80;;
28353;SDS011;15603;50.878;8.036;2023-04-25T01:21:45;11.07;;;3.33;;
28353;SDS011;15603;50.878;8.036;2023-04-25T01:24:13;13.93;;;3.72;;
28353;SDS011;15603;50.878;8.036;2023-04-25T01:26:41;13.18;;;4.22;;
28353;SDS011;15603;50.878;8.036;2023-04-25T01:29:20;15.23;;;4.00;;
28353;SDS011;15603;50.878;8.036;2023-04-25T01:31:47;11.68;;;3.65;;
28353;SDS011;15603;50.878;8.036;2023-04-25T01:34:14;10.60;;;3.58;;
28353;SDS011;15603;50.878;8.036;2023-04-25T01:36:41;7.78;;;3.50;;
28353;SDS011;15603;50.878;8.036;2023-04-25T01:39:09;7.63;;;3.55;;
28353;SDS011;15603;50.878;8.036;2023-04-25T01:41:37;8.98;;;4.25;;
28353;SDS011;15603;50.878;8.036;2023-04-25T01:44:05;13.18;;;4.60;;
28353;SDS011;15603;50.878;8.036;2023-04-25T01:46:33;12.32;;;3.90;;
28353;SDS011;15603;50.878;8.036;2023-04-25T01:49:00;14.38;;;4.47;;
28353;SDS011;15603;50.878;8.036;2023-04-25T01:51:28;12.35;;;3.70;;
28353;SDS011;15603;50.878;8.036;2023-04-25T01:53:56;9.40;;;3.63;;
28353;SDS011;15603;50.878;8.036;2023-04-25T01:56:30;20.02;;;4.53;;
28353;SDS011;15603;50.878;8.036;2023-04-25T01:58:58;13.13;;;4.18;;
28353;SDS011;15603;50.878;8.036;2023-04-25T02:01:52;11.30;;;4.13;;
28353;SDS011;15603;50.878;8.036;2023-04-25T02:04:25;23.23;;;5.47;;
28353;SDS011;15603;50.878;8.036;2023-04-25T02:06:53;12.13;;;5.05;;
28353;SDS011;15603;50.878;8.036;2023-04-25T02:09:21;12.85;;;5.30;;
28353;SDS011;15603;50.878;8.036;2023-04-25T02:11:52;12.55;;;5.75;;
28353;SDS011;15603;50.878;8.036;2023-04-25T02:14:48;13.68;;;4.82;;
28353;SDS011;15603;50.878;8.036;2023-04-25T02:17:27;16.52;;;6.10;;
28353;SDS011;15603;50.878;8.036;2023-04-25T02:19:54;13.65;;;5.68;;
28353;SDS011;15603;50.878;8.036;2023-04-25T02:22:23;14.73;;;6.65;;
28353;SDS011;15603;50.878;8.036;2023-04-25T02:24:50;18.90;;;5.10;;
28353;SDS011;15603;50.878;8.036;2023-04-25T02:27:17;15.27;;;5.45;;
28353;SDS011;15603;50.878;8.036;2023-04-25T02:29:44;15.50;;;4.72;;
28353;SDS011;15603;50.878;8.036;2023-04-25T02:32:11;22.98;;;5.80;;
28353;SDS011;15603;50.878;8.036;2023-04-25T02:34:39;25.38;;;6.32;;
28353;SDS011;15603;50.878;8.036;2023-04-25T02:37:06;23.95;;;5.65;;
28353;SDS011;15603;50.878;8.036;2023-04-25T02:39:33;10.98;;;4.40;;
28353;SDS011;15603;50.878;8.036;2023-04-25T02:42:00;23.17;;;5.28;;
28353;SDS011;15603;50.878;8.036;2023-04-25T02:44:29;14.82;;;5.03;;
28353;SDS011;15603;50.878;8.036;2023-04-25T02:46:56;19.05;;;5.20;;
28353;SDS011;15603;50.878;8.036;2023-04-25T02:49:23;16.20;;;4.97;;
28353;SDS011;15603;50.878;8.036;2023-04-25T02:51:51;20.52;;;5.30;;
28353;SDS011;15603;50.878;8.036;2023-04-25T02:54:18;21.85;;;5.28;;
28353;SDS011;15603;50.878;8.036;2023-04-25T02:56:47;21.45;;;6.30;;
28353;SDS011;15603;50.878;8.036;2023-04-25T02:59:20;17.38;;;5.07;;
28353;SDS011;15603;50.878;8.036;2023-04-25T03:01:47;20.65;;;4.88;;
28353;SDS011;15603;50.878;8.036;2023-04-25T03:04:14;13.38;;;4.38;;
28353;SDS011;15603;50.878;8.036;2023-04-25T03:06:41;19.20;;;4.60;;
28353;SDS011;15603;50.878;8.036;2023-04-25T03:09:08;16.30;;;4.05;;
28353;SDS011;15603;50.878;8.036;2023-04-25T03:11:37;15.18;;;4.47;;
28353;SDS011;15603;50.878;8.036;2023-04-25T03:14:05;20.15;;;4.57;;
28353;SDS011;15603;50.878;8.036;2023-04-25T03:16:33;20.70;;;5.55;;
28353;SDS011;15603;50.878;8.036;2023-04-25T03:19:00;17.02;;;4.45;;
28353;SDS011;15603;50.878;8.036;2023-04-25T03:21:27;11.90;;;4.00;;
28353;SDS011;15603;50.878;8.036;2023-04-25T03:23:55;14.20;;;4.50;;
28353;SDS011;15603;50.878;8.036;2023-04-25T03:26:22;14.07;;;4.45;;
28353;SDS011;15603;50.878;8.036;2023-04-25T03:28:49;15.88;;;4.03;;
28353;SDS011;15603;50.878;8.036;2023-04-25T03:31:16;12.93;;;3.85;;
28353;SDS011;15603;50.878;8.036;2023-04-25T03:33:43;11.35;;;4.45;;
28353;SDS011;15603;50.878;8.036;2023-04-25T03:36:10;13.43;;;3.97;;
28353;SDS011;15603;50.878;8.036;2023-04-25T03:38:38;18.00;;;4.80;;
28353;SDS011;15603;50.878;8.036;2023-04-25T03:41:07;17.08;;;4.40;;
28353;SDS011;15603;50.878;8.036;2023-04-25T03:43:57;23.42;;;4.97;;
28353;SDS011;15603;50.878;8.036;2023-04-25T03:46:24;22.23;;;4.45;;
28353;SDS011;15603;50.878;8.036;2023-04-25T03:48:51;19.48;;;4.80;;
28353;SDS011;15603;50.878;8.036;2023-04-25T03:51:23;17.98;;;5.13;;
28353;SDS011;15603;50.878;8.036;2023-04-25T03:53:50;21.98;;;4.60;;
28353;SDS011;15603;50.878;8.036;2023-04-25T03:56:18;16.05;;;4.93;;
28353;SDS011;15603;50.878;8.036;2023-04-25T03:58:52;16.95;;;3.75;;
28353;SDS011;15603;50.878;8.036;2023-04-25T04:01:22;20.90;;;5.35;;
28353;SDS011;15603;50.878;8.036;2023-04-25T04:03:49;14.98;;;4.45;;
28353;SDS011;15603;50.878;8.036;2023-04-25T04:06:17;14.55;;;4.28;;
28353;SDS011;15603;50.878;8.036;2023-04-25T04:08:49;20.23;;;6.65;;
28353;SDS011;15603;50.878;8.036;2023-04-25T04:11:16;20.77;;;5.15;;
28353;SDS011;15603;50.878;8.036;2023-04-25T04:13:43;19.83;;;4.63;;
28353;SDS011;15603;50.878;8.036;2023-04-25T04:16:10;16.63;;;4.90;;
28353;SDS011;15603;50.878;8.036;2023-04-25T04:18:37;15.35;;;4.35;;
28353;SDS011;15603;50.878;8.036;2023-04-25T04:21:04;22.67;;;5.32;;
28353;SDS011;15603;50.878;8.036;2023-04-25T04:23:34;19.60;;;4.93;;
28353;SDS011;15603;50.878;8.036;2023-04-25T04:26:05;13.07;;;4.28;;
28353;SDS011;15603;50.878;8.036;2023-04-25T04:28:50;19.75;;;5.25;;
28353;SDS011;15603;50.878;8.036;2023-04-25T04:31:35;13.20;;;4.72;;
28353;SDS011;15603;50.878;8.036;2023-04-25T04:34:03;17.38;;;5.32;;
28353;SDS011;15603;50.878;8.036;2023-04-25T04:36:30;19.05;;;5.88;;
28353;SDS011;15603;50.878;8.036;2023-04-25T04:38:57;17.17;;;4.85;;
28353;SDS011;15603;50.878;8.036;2023-04-25T04:41:50;21.85;;;5.32;;
28353;SDS011;15603;50.878;8.036;2023-04-25T04:44:49;19.08;;;4.90;;
28353;SDS011;15603;50.878;8.036;2023-04-25T04:47:25;21.80;;;6.05;;
28353;SDS011;15603;50.878;8.036;2023-04-25T04:50:24;18.00;;;5.68;;
28353;SDS011;15603;50.878;8.036;2023-04-25T04:53:28;18.90;;;5.72;;
28353;SDS011;15603;50.878;8.036;2023-04-25T04:56:13;20.42;;;6.43;;
28353;SDS011;15603;50.878;8.036;2023-04-25T04:58:52;17.17;;;5.30;;
28353;SDS011;15603;50.878;8.036;2023-04-25T05:01:33;18.52;;;6.28;;
28353;SDS011;15603;50.878;8.036;2023-04-25T05:04:20;15.18;;;5.70;;
28353;SDS011;15603;50.878;8.036;2023-04-25T05:07:10;14.68;;;5.95;;
28353;SDS011;15603;50.878;8.036;2023-04-25T05:09:46;20.65;;;6.05;;
28353;SDS011;15603;50.878;8.036;2023-04-25T05:12:31;22.65;;;6.38;;
28353;SDS011;15603;50.878;8.036;2023-04-25T05:15:30;21.40;;;7.78;;
28353;SDS011;15603;50.878;8.036;2023-04-25T05:18:17;17.45;;;6.28;;
28353;SDS011;15603;50.878;8.036;2023-04-25T05:21:08;18.30;;;7.55;;
28353;SDS011;15603;50.878;8.036;2023-04-25T05:23:47;25.75;;;6.80;;
28353;SDS011;15603;50.878;8.036;2023-04-25T05:26:33;16.80;;;6.05;;
28353;SDS011;15603;50.878;8.036;2023-04-25T05:29:21;16.65;;;7.45;;
28353;SDS011;15603;50.878;8.036;2023-04-25T05:32:07;20.70;;;6.57;;
28353;SDS011;15603;50.878;8.036;2023-04-25T05:34:35;22.20;;;6.95;;
28353;SDS011;15603;50.878;8.036;2023-04-25T05:37:05;19.88;;;7.50;;
28353;SDS011;15603;50.878;8.036;2023-04-25T05:39:36;17.77;;;6.18;;
28353;SDS011;15603;50.878;8.036;2023-04-25T05:42:25;26.20;;;6.90;;
28353;SDS011;15603;50.878;8.036;2023-04-25T05:45:01;19.17;;;7.40;;
28353;SDS011;15603;50.878;8.036;2023-04-25T05:47:51;25.83;;;7.03;;
28353;SDS011;15603;50.878;8.036;2023-04-25T05:50:47;22.05;;;7.47;;
28353;SDS011;15603;50.878;8.036;2023-04-25T05:53:36;16.70;;;7.15;;
28353;SDS011;15603;50.878;8.036;2023-04-25T05:56:03;19.90;;;7.18;;
28353;SDS011;15603;50.878;8.036;2023-04-25T05:58:30;17.05;;;6.22;;
28353;SDS011;15603;50.878;8.036;2023-04-25T06:00:59;23.27;;;6.80;;
28353;SDS011;15603;50.878;8.036;2023-04-25T06:03:26;31.40;;;8.32;;
28353;SDS011;15603;50.878;8.036;2023-04-25T06:05:56;32.70;;;7.40;;
28353;SDS011;15603;50.878;8.036;2023-04-25T06:08:25;25.67;;;7.30;;
28353;SDS011;15603;50.878;8.036;2023-04-25T06:10:52;26.58;;;8.70;;
28353;SDS011;15603;50.878;8.036;2023-04-25T06:13:19;28.52;;;6.75;;
28353;SDS011;15603;50.878;8.036;2023-04-25T06:15:46;26.45;;;6.50;;
28353;SDS011;15603;50.878;8.036;2023-04-25T06:18:13;23.38;;;6.70;;
28353;SDS011;15603;50.878;8.036;2023-04-25T06:20:41;20.25;;;7.10;;
28353;SDS011;15603;50.878;8.036;2023-04-25T06:23:08;21.67;;;7.05;;
28353;SDS011;15603;50.878;8.036;2023-04-25T06:25:53;23.52;;;7.03;;
28353;SDS011;15603;50.878;8.036;2023-04-25T06:28:21;23.05;;;8.02;;
28353;SDS011;15603;50.878;8.036;2023-04-25T06:30:48;23.67;;;7.45;;
28353;SDS011;15603;50.878;8.036;2023-04-25T06:33:18;23.85;;;8.45;;
28353;SDS011;15603;50.878;8.036;2023-04-25T06:35:45;24.58;;;7.38;;
28353;SDS011;15603;50.878;8.036;2023-04-25T06:38:16;25.25;;;8.20;;
28353;SDS011;15603;50.878;8.036;2023-04-25T06:40:47;28.33;;;7.00;;
28353;SDS011;15603;50.878;8.036;2023-04-25T06:43:14;19.58;;;7.00;;
28353;SDS011;15603;50.878;8.036;2023-04-25T06:45:59;19.42;;;7.53;;
28353;SDS011;15603;50.878;8.036;2023-04-25T06:48:29;28.77;;;7.95;;
28353;SDS011;15603;50.878;8.036;2023-04-25T06:50:57;30.67;;;9.70;;
28353;SDS011;15603;50.878;8.036;2023-04-25T06:53:25;23.38;;;8.25;;
28353;SDS011;15603;50.878;8.036;2023-04-25T06:55:57;19.30;;;6.50;;
28353;SDS011;15603;50.878;8.036;2023-04-25T06:58:29;18.58;;;6.50;;
28353;SDS011;15603;50.878;8.036;2023-04-25T07:01:08;23.63;;;6.78;;
28353;SDS011;15603;50.878;8.036;2023-04-25T07:03:36;15.23;;;4.30;;
28353;SDS011;15603;50.878;8.036;2023-04-25T07:06:09;20.63;;;4.60;;
28353;SDS011;15603;50.878;8.036;2023-04-25T07:08:36;16.27;;;5.03;;
28353;SDS011;15603;50.878;8.036;2023-04-25T07:11:03;14.80;;;3.30;;
28353;SDS011;15603;50.878;8.036;2023-04-25T07:13:30;13.07;;;3.17;;
28353;SDS011;15603;50.878;8.036;2023-04-25T07:15:57;15.65;;;4.03;;
28353;SDS011;15603;50.878;8.036;2023-04-25T07:18:26;5.93;;;1.80;;
28353;SDS011;15603;50.878;8.036;2023-04-25T07:20:53;8.75;;;2.05;;
28353;SDS011;15603;50.878;8.036;2023-04-25T07:23:21;11.30;;;2.95;;
28353;SDS011;15603;50.878;8.036;2023-04-25T07:25:48;15.70;;;2.60;;
28353;SDS011;15603;50.878;8.036;2023-04-25T07:28:20;15.73;;;2.78;;
28353;SDS011;15603;50.878;8.036;2023-04-25T07:30:47;14.43;;;2.15;;
28353;SDS011;15603;50.878;8.036;2023-04-25T07:33:14;13.18;;;2.85;;
28353;SDS011;15603;50.878;8.036;2023-04-25T07:35:41;77.88;;;7.38;;
28353;SDS011;15603;50.878;8.036;2023-04-25T07:38:09;17.20;;;2.90;;
28353;SDS011;15603;50.878;8.036;2023-04-25T07:40:37;16.70;;;2.45;;
28353;SDS011;15603;50.878;8.036;2023-04-25T07:43:07;26.42;;;3.05;;
28353;SDS011;15603;50.878;8.036;2023-04-25T07:45:43;23.00;;;4.57;;
28353;SDS011;15603;50.878;8.036;2023-04-25T07:48:11;6.80;;;1.95;;
28353;SDS011;15603;50.878;8.036;2023-04-25T07:50:42;17.13;;;2.72;;
28353;SDS011;15603;50.878;8.036;2023-04-25T07:53:10;13.10;;;2.92;;
28353;SDS011;15603;50.878;8.036;2023-04-25T07:55:45;16.67;;;2.60;;
28353;SDS011;15603;50.878;8.036;2023-04-25T07:58:16;17.23;;;2.85;;
28353;SDS011;15603;50.878;8.036;2023-04-25T08:00:50;14.13;;;2.22;;
28353;SDS011;15603;50.878;8.036;2023-04-25T08:03:40;14.63;;;2.33;;
28353;SDS011;15603;50.878;8.036;2023-04-25T08:06:14;17.05;;;2.00;;
28353;SDS011;15603;50.878;8.036;2023-04-25T08:09:01;14.30;;;2.95;;
28353;SDS011;15603;50.878;8.036;2023-04-25T08:11:34;14.57;;;2.20;;
28353;SDS011;15603;50.878;8.036;2023-04-25T08:14:02;15.05;;;2.72;;
28353;SDS011;15603;50.878;8.036;2023-04-25T08:16:29;28.05;;;3.53;;
28353;SDS011;15603;50.878;8.036;2023-04-25T08:18:57;12.40;;;2.50;;
28353;SDS011;15603;50.878;8.036;2023-04-25T08:21:24;12.65;;;2.85;;
28353;SDS011;15603;50.878;8.036;2023-04-25T08:23:53;16.85;;;2.20;;
28353;SDS011;15603;50.878;8.036;2023-04-25T08:26:25;18.35;;;2.30;;
28353;SDS011;15603;50.878;8.036;2023-04-25T08:28:52;20.67;;;2.20;;
28353;SDS011;15603;50.878;8.036;2023-04-25T08:31:19;19.55;;;2.33;;
28353;SDS011;15603;50.878;8.036;2023-04-25T08:33:56;17.80;;;2.35;;
28353;SDS011;15603;50.878;8.036;2023-04-25T08:36:52;14.55;;;2.08;;
28353;SDS011;15603;50.878;8.036;2023-04-25T08:39:29;13.68;;;3.03;;
28353;SDS011;15603;50.878;8.036;2023-04-25T08:42:16;12.85;;;2.55;;
28353;SDS011;15603;50.878;8.036;2023-04-25T08:44:48;13.95;;;2.42;;
28353;SDS011;15603;50.878;8.036;2023-04-25T08:47:16;15.40;;;1.77;;
28353;SDS011;15603;50.878;8.036;2023-04-25T08:49:52;6.93;;;1.60;;
28353;SDS011;15603;50.878;8.036;2023-04-25T08:52:22;10.50;;;2.83;;
28353;SDS011;15603;50.878;8.036;2023-04-25T08:54:52;11.23;;;3.05;;
28353;SDS011;15603;50.878;8.036;2023-04-25T08:57:21;9.23;;;1.55;;
28353;SDS011;15603;50.878;8.036;2023-04-25T08:59:49;11.35;;;1.70;;
28353;SDS011;15603;50.878;8.036;2023-04-25T09:02:17;11.40;;;2.08;;
28353;SDS011;15603;50.878;8.036;2023-04-25T09:04:48;17.52;;;2.15;;
28353;SDS011;15603;50.878;8.036;2023-04-25T09:07:16;12.32;;;2.20;;
28353;SDS011;15603;50.878;8.036;2023-04-25T09:09:47;8.15;;;1.42;;
28353;SDS011;15603;50.878;8.036;2023-04-25T09:12:19;9.48;;;1.30;;
28353;SDS011;15603;50.878;8.036;2023-04-25T09:17:57;11.85;;;2.03;;
28353;SDS011;15603;50.878;8.036;2023-04-25T09:20:30;10.85;;;1.38;;
28353;SDS011;15603;50.878;8.036;2023-04-25T09:23:04;9.60;;;2.08;;
28353;SDS011;15603;50.878;8.036;2023-04-25T09:25:36;11.27;;;2.00;;
28353;SDS011;15603;50.878;8.036;2023-04-25T09:28:09;10.82;;;1.65;;
28353;SDS011;15603;50.878;8.036;2023-04-25T09:30:36;8.40;;;1.70;;
28353;SDS011;15603;50.878;8.036;2023-04-25T09:33:17;8.48;;;1.70;;
28353;SDS011;15603;50.878;8.036;2023-04-25T09:35:48;22.15;;;2.03;;
28353;SDS011;15603;50.878;8.036;2023-04-25T09:38:40;7.32;;;1.42;;
28353;SDS011;15603;50.878;8.036;2023-04-25T09:41:27;13.95;;;2.20;;
28353;SDS011;15603;50.878;8.036;2023-04-25T09:43:58;13.80;;;2.95;;
28353;SDS011;15603;50.878;8.036;2023-04-25T09:46:34;8.47;;;1.30;;
28353;SDS011;15603;50.878;8.036;2023-04-25T09:49:14;9.20;;;2.10;;
28353;SDS011;15603;50.878;8.036;2023-04-25T09:51:57;12.35;;;2.20;;
28353;SDS011;15603;50.878;8.036;2023-04-25T09:54:30;7.55;;;2.15;;
28353;SDS011;15603;50.878;8.036;2023-04-25T09:57:10;6.30;;;1.75;;
28353;SDS011;15603;50.878;8.036;2023-04-25T09:59:42;14.02;;;2.00;;
28353;SDS011;15603;50.878;8.036;2023-04-25T10:02:11;13.60;;;1.83;;
28353;SDS011;15603;50.878;8.036;2023-04-25T10:04:40;10.43;;;1.65;;
28353;SDS011;15603;50.878;8.036;2023-04-25T10:07:18;10.35;;;1.42;;
28353;SDS011;15603;50.878;8.036;2023-04-25T10:09:48;13.88;;;2.30;;
28353;SDS011;15603;50.878;8.036;2023-04-25T10:12:18;13.32;;;2.10;;
28353;SDS011;15603;50.878;8.036;2023-04-25T10:14:46;10.02;;;1.75;;
28353;SDS011;15603;50.878;8.036;2023-04-25T10:17:14;18.27;;;2.35;;
28353;SDS011;15603;50.878;8.036;2023-04-25T10:19:42;24.70;;;2.30;;
28353;SDS011;15603;50.878;8.036;2023-04-25T10:22:14;14.25;;;3.22;;
28353;SDS011;15603;50.878;8.036;2023-04-25T10:24:45;18.98;;;2.15;;
28353;SDS011;15603;50.878;8.036;2023-04-25T10:27:13;18.92;;;2.72;;
28353;SDS011;15603;50.878;8.036;2023-04-25T10:29:41;9.20;;;1.58;;
28353;SDS011;15603;50.878;8.036;2023-04-25T10:32:10;8.45;;;1.80;;
28353;SDS011;15603;50.878;8.036;2023-04-25T10:34:40;7.07;;;2.05;;
28353;SDS011;15603;50.878;8.036;2023-04-25T10:39:38;9.68;;;2.05;;
28353;SDS011;15603;50.878;8.036;2023-04-25T10:42:07;10.57;;;1.55;;
28353;SDS011;15603;50.878;8.036;2023-04-25T10:44:35;13.05;;;2.50;;
28353;SDS011;15603;50.878;8.036;2023-04-25T10:47:05;5.07;;;1.33;;
28353;SDS011;15603;50.878;8.036;2023-04-25T10:49:35;12.48;;;2.70;;
28353;SDS011;15603;50.878;8.036;2023-04-25T10:52:16;9.35;;;1.60;;
28353;SDS011;15603;50.878;8.036;2023-04-25T10:54:57;6.70;;;1.08;;
28353;SDS011;15603;50.878;8.036;2023-04-25T11:02:41;5.97;;;1.45;;
28353;SDS011;15603;50.878;8.036;2023-04-25T11:05:10;9.23;;;2.10;;
28353;SDS011;15603;50.878;8.036;2023-04-25T11:07:44;6.00;;;1.63;;
28353;SDS011;15603;50.878;8.036;2023-04-25T11:10:33;16.08;;;1.85;;
28353;SDS011;15603;50.878;8.036;2023-04-25T11:13:03;12.25;;;1.88;;
28353;SDS011;15603;50.878;8.036;2023-04-25T11:15:31;9.13;;;1.60;;
28353;SDS011;15603;50.878;8.036;2023-04-25T11:17:58;6.75;;;1.38;;
28353;SDS011;15603;50.878;8.036;2023-04-25T11:20:25;13.18;;;2.03;;
28353;SDS011;15603;50.878;8.036;2023-04-25T11:22:57;9.13;;;1.92;;
28353;SDS011;15603;50.878;8.036;2023-04-25T11:25:25;9.10;;;1.65;;
28353;SDS011;15603;50.878;8.036;2023-04-25T11:27:53;9.13;;;1.58;;
28353;SDS011;15603;50.878;8.036;2023-04-25T11:30:25;9.52;;;1.25;;
28353;SDS011;15603;50.878;8.036;2023-04-25T11:32:52;18.92;;;2.28;;
28353;SDS011;15603;50.878;8.036;2023-04-25T11:35:20;4.18;;;1.67;;
28353;SDS011;15603;50.878;8.036;2023-04-25T11:37:49;7.10;;;1.27;;
28353;SDS011;15603;50.878;8.036;2023-04-25T11:40:17;10.98;;;1.85;;
28353;SDS011;15603;50.878;8.036;2023-04-25T11:42:47;8.13;;;2.00;;
28353;SDS011;15603;50.878;8.036;2023-04-25T11:45:14;9.98;;;1.42;;
28353;SDS011;15603;50.878;8.036;2023-04-25T11:47:42;8.30;;;1.70;;
28353;SDS011;15603;50.878;8.036;2023-04-25T11:50:09;6.78;;;1.50;;
28353;SDS011;15603;50.878;8.036;2023-04-25T11:52:41;13.95;;;2.03;;
28353;SDS011;15603;50.878;8.036;2023-04-25T11:57:44;14.50;;;2.00;;
28353;SDS011;15603;50.878;8.036;2023-04-25T12:02:45;9.20;;;1.38;;
28353;SDS011;15603;50.878;8.036;2023-04-25T12:05:15;4.82;;;0.90;;
28353;SDS011;15603;50.878;8.036;2023-04-25T12:07:58;7.88;;;1.23;;
28353;SDS011;15603;50.878;8.036;2023-04-25T12:10:40;9.38;;;0.93;;
28353;SDS011;15603;50.878;8.036;2023-04-25T12:13:19;6.65;;;1.20;;
28353;SDS011;15603;50.878;8.036;2023-04-25T12:15:49;3.35;;;0.95;;
28353;SDS011;15603;50.878;8.036;2023-04-25T12:18:20;5.60;;;1.33;;
28353;SDS011;15603;50.878;8.036;2023-04-25T12:20:48;7.38;;;1.05;;
28353;SDS011;15603;50.878;8.036;2023-04-25T12:23:15;5.22;;;1.05;;
28353;SDS011;15603;50.878;8.036;2023-04-25T12:25:43;9.23;;;1.23;;
28353;SDS011;15603;50.878;8.036;2023-04-25T12:28:18;9.07;;;1.00;;
28353;SDS011;15603;50.878;8.036;2023-04-25T12:31:03;14.30;;;1.10;;
28353;SDS011;15603;50.878;8.036;2023-04-25T12:33:32;5.68;;;1.23;;
28353;SDS011;15603;50.878;8.036;2023-04-25T12:36:01;16.48;;;2.08;;
28353;SDS011;15603;50.878;8.036;2023-04-25T12:38:38;6.97;;;0.70;;
28353;SDS011;15603;50.878;8.036;2023-04-25T12:41:08;8.40;;;0.98;;
28353;SDS011;15603;50.878;8.036;2023-04-25T12:43:35;6.05;;;1.15;;
28353;SDS011;15603;50.878;8.036;2023-04-25T12:46:03;5.80;;;0.93;;
28353;SDS011;15603;50.878;8.036;2023-04-25T12:48:30;15.50;;;1.15;;
28353;SDS011;15603;50.878;8.036;2023-04-25T12:50:57;4.03;;;0.75;;
28353;SDS011;15603;50.878;8.036;2023-04-25T12:53:25;2.78;;;0.82;;
28353;SDS011;15603;50.878;8.036;2023-04-25T12:55:52;4.32;;;0.98;;
28353;SDS011;15603;50.878;8.036;2023-04-25T12:58:24;7.85;;;1.10;;
28353;SDS011;15603;50.878;8.036;2023-04-25T13:00:52;4.28;;;0.82;;
28353;SDS011;15603;50.878;8.036;2023-04-25T13:03:19;9.18;;;2.10;;
28353;SDS011;15603;50.878;8.036;2023-04-25T13:05:46;7.93;;;1.17;;
28353;SDS011;15603;50.878;8.036;2023-04-25T13:08:13;5.63;;;1.08;;
28353;SDS011;15603;50.878;8.036;2023-04-25T13:10:41;9.00;;;2.13;;
28353;SDS011;15603;50.878;8.036;2023-04-25T13:13:08;3.33;;;0.77;;
28353;SDS011;15603;50.878;8.036;2023-04-25T13:15:35;7.15;;;0.60;;
28353;SDS011;15603;50.878;8.036;2023-04-25T13:18:03;3.55;;;0.57;;
28353;SDS011;15603;50.878;8.036;2023-04-25T13:20:32;5.07;;;1.25;;
28353;SDS011;15603;50.878;8.036;2023-04-25T13:22:59;12.75;;;0.98;;
28353;SDS011;15603;50.878;8.036;2023-04-25T13:25:28;7.00;;;1.40;;
28353;SDS011;15603;50.878;8.036;2023-04-25T13:27:55;6.25;;;1.35;;
28353;SDS011;15603;50.878;8.036;2023-04-25T13:30:22;9.70;;;1.17;;
28353;SDS011;15603;50.878;8.036;2023-04-25T13:32:49;9.10;;;1.33;;
28353;SDS011;15603;50.878;8.036;2023-04-25T13:35:18;8.32;;;1.42;;
28353;SDS011;15603;50.878;8.036;2023-04-25T13:37:45;6.47;;;1.08;;
28353;SDS011;15603;50.878;8.036;2023-04-25T13:40:12;4.70;;;1.05;;
28353;SDS011;15603;50.878;8.036;2023-04-25T13:42:39;10.90;;;1.30;;
28353;SDS011;15603;50.878;8.036;2023-04-25T13:45:07;7.82;;;1.10;;
28353;SDS011;15603;50.878;8.036;2023-04-25T13:47:34;7.00;;;1.25;;
28353;SDS011;15603;50.878;8.036;2023-04-25T13:50:02;10.30;;;1.00;;
28353;SDS011;15603;50.878;8.036;2023-04-25T13:52:30;9.70;;;1.27;;
28353;SDS011;15603;50.878;8.036;2023-04-25T13:54:58;5.32;;;0.90;;
28353;SDS011;15603;50.878;8.036;2023-04-25T13:57:25;5.88;;;1.05;;
28353;SDS011;15603;50.878;8.036;2023-04-25T13:59:52;6.40;;;1.00;;
28353;SDS011;15603;50.878;8.036;2023-04-25T14:02:20;12.75;;;2.08;;
28353;SDS011;15603;50.878;8.036;2023-04-25T14:04:47;7.15;;;1.20;;
28353;SDS011;15603;50.878;8.036;2023-04-25T14:07:14;6.35;;;1.02;;
28353;SDS011;15603;50.878;8.036;2023-04-25T14:09:46;10.52;;;1.48;;
28353;SDS011;15603;50.878;8.036;2023-04-25T14:12:13;15.13;;;3.80;;
28353;SDS011;15603;50.878;8.036;2023-04-25T14:14:40;6.20;;;0.98;;
28353;SDS011;15603;50.878;8.036;2023-04-25T14:17:08;4.25;;;0.90;;
28353;SDS011;15603;50.878;8.036;2023-04-25T14:19:36;4.10;;;1.05;;
28353;SDS011;15603;50.878;8.036;2023-04-25T14:22:05;4.63;;;1.25;;
28353;SDS011;15603;50.878;8.036;2023-04-25T14:24:32;6.07;;;1.60;;
28353;SDS011;15603;50.878;8.036;2023-04-25T14:26:59;7.03;;;1.10;;
28353;SDS011;15603;50.878;8.036;2023-04-25T14:29:27;7.93;;;1.63;;
28353;SDS011;15603;50.878;8.036;2023-04-25T14:31:54;9.13;;;1.38;;
28353;SDS011;15603;50.878;8.036;2023-04-25T14:34:23;6.82;;;1.15;;
28353;SDS011;15603;50.878;8.036;2023-04-25T14:36:51;6.82;;;1.27;;
28353;SDS011;15603;50.878;8.036;2023-04-25T14:39:18;7.30;;;0.90;;
28353;SDS011;15603;50.878;8.036;2023-04-25T14:41:45;7.15;;;1.60;;
28353;SDS011;15603;50.878;8.036;2023-04-25T14:44:12;5.88;;;1.30;;
28353;SDS011;15603;50.878;8.036;2023-04-25T14:46:40;9.45;;;1.40;;
28353;SDS011;15603;50.878;8.036;2023-04-25T14:49:07;5.88;;;1.17;;
28353;SDS011;15603;50.878;8.036;2023-04-25T14:51:34;5.07;;;1.20;;
28353;SDS011;15603;50.878;8.036;2023-04-25T14:54:01;6.63;;;1.52;;
28353;SDS011;15603;50.878;8.036;2023-04-25T14:56:29;3.72;;;1.27;;
28353;SDS011;15603;50.878;8.036;2023-04-25T14:58:57;5.18;;;0.90;;
28353;SDS011;15603;50.878;8.036;2023-04-25T15:01:24;8.23;;;1.33;;
28353;SDS011;15603;50.878;8.036;2023-04-25T15:03:51;5.35;;;1.35;;
28353;SDS011;15603;50.878;8.036;2023-04-25T15:06:19;4.57;;;1.40;;
28353;SDS011;15603;50.878;8.036;2023-04-25T15:08:46;7.93;;;1.58;;
28353;SDS011;15603;50.878;8.036;2023-04-25T15:11:13;12.38;;;1.42;;
28353;SDS011;15603;50.878;8.036;2023-04-25T15:13:40;12.05;;;1.08;;
28353;SDS011;15603;50.878;8.036;2023-04-25T15:16:07;5.00;;;1.33;;